Dies ist die Übersicht über die aktuellen Messwerte der DWD-Stationen.

Eine Auf/Abwärtssortierung der Messwerte, ist durch einen Klick auf den gewünschten Messwert im Tabellenkopf möglich (z.B. Klick auf "Temperatur 2m in °C" ändert Sortierung auf/absteigend).

Station letzte Meldung Temperatur 2m in °C Taupunkt 2m in °C Feuchte 2m in % Temperatur 5cm in °C Mittelwind in km/h Spitzenböen in km/h Windrichtung in ° Luftdruck in hpa Sonnenscheindauer in Minuten Niederschlag in mm Sichtweite in km Neuschnee in cm Schneehöhe Gesamt in cm
Aachen-Orsbach 15:00 15.0 05.1 52.0 16.0 33.0 58.0 250 1012 49.0 00.0 54.1
Ahaus 15:00 15.6 04.9 49.0 15.5 23.0 49.0 280 1009 46.0 00.0 62.3
Alfeld 15:00 14.0 10.2 78.0 13.1 10.0 27.0 220 1008 00.0 00.1 61.1
Altenstadt 15:00 22.0 13.9 60.0 11.0 250 50.0
Andernach 15:00 16.9 04.4 43.0 16.0 18.0 42.0 290 1012 00.0 00.0 74.9
Angermünde 15:00 27.2 10.5 35.0 26.8 28.0 48.0 220 1002 00.0 00.0 25.7
Arkona 15:00 13.6 12.3 92.0 12.9 49.0 86.0 260 1002 00.0 03.8 08.3
Artern 15:00 12.9 10.5 85.0 12.4 36.0 84.0 280 1009 00.0 00.9 21.3
Augsburg 15:00 25.0 11.9 44.0 24.0 22.0 46.0 250 1009 01.0 00.0 18.9
Bamberg 15:00 22.6 13.1 55.0 18.0 12.0 50.0 240 1008 00.0 00.5 47.3
Barth 15:00 14.6 11.1 80.0 13.5 28.0 48.0 260 1002 00.0 03.0 44.3
Baruth 15:00 27.3 12.2 39.0 26.8 23.0 51.0 220 1003 00.0 00.0 47.1
Belm 15:00 15.6 06.8 56.0 17.0 26.0 53.0 260 1008 23.0 00.0 70.0
Bergen 15:00 14.5 12.1 86.0 07.0 190 1006 10.0
Berlin-Dahlem (FU) 15:00 19.5 13.6 69.0 47.0 300 1005 10.0
Berlin-Schönefeld 15:00 27.6 11.8 37.0 27.1 36.0 67.0 220 1003 00.0 00.0 18.0
Berlin-Tegel 15:00 16.5 13.0 80.0 15.5 35.0 87.0 280 1006 00.0 00.2 15.0
Berlin-Tempelhof 15:00 19.3 54.0 79.0 300 00.0 00.0
Berus 15:00 13.5 12.1 91.0 14.0 23.0 40.0 250 1014 16.0 00.0 23.6
Boizenburg 15:00 14.6 12.0 84.0 14.0 19.0 35.0 230 1005 00.0 00.2 39.0
Boltenhagen 15:00 14.2 12.1 87.0 13.8 23.0 37.0 220 1003 00.0 00.2 27.0
Bonn-Roleber 15:00 15.5 05.5 51.0 15.4 22.0 45.0 280 1012 00.0 00.0 66.3
Braunlage 15:00 09.7 08.2 90.0 09.8 15.0 37.0 260 1009 00.0 02.7 17.2
Braunschweig 15:00 14.4 10.5 77.0 13.2 18.0 36.0 240 1007 00.0 00.0 70.0
Bremen 15:00 16.1 07.0 55.0 16.8 43.0 60.0 250 1006 33.0 00.0 40.0
Bremerhaven 15:00 16.0 08.6 61.0 16.2 43.0 68.0 250 1005 35.0 00.0 10.5
Bremervörde 15:00 15.8 06.5 54.0 15.5 32.0 56.0 260 1005 07.0 00.0 49.6
Brocken 15:00 05.5 05.2 98.0 06.2 72.0 98.0 250 00.0 00.0
Büchel (Flugplatz) 15:00 12.5 05.7 63.0 25.0 280 1013 14.0
Bückeburg 15:00 15.6 10.1 70.0 25.0 270 1008 04.1
Carlsfeld 15:00 17.6 15.0 85.0 16.4 09.0 32.0 280 02.0 01.1 16.3
Celle 15:00 14.9 11.5 80.0 18.0 250 1007 25.0
Chieming 15:00 26.4 12.5 42.0 27.5 08.0 14.0 240 1010 60.0 00.0 18.0
Cottbus 15:00 29.0 11.4 34.0 28.9 22.0 49.0 240 1004 43.0 00.0 47.1
Cuxhaven 15:00 14.9 09.4 70.0 14.4 34.0 72.0 260 1004 28.0 00.6 12.0
Deuselbach 15:00 13.0 10.8 87.0 14.1 25.0 40.0 260 1013 07.0 00.0 36.6
Diepholz 15:00 16.6 06.4 51.0 18.1 35.0 56.0 250 1007 32.0 00.0 35.4
Doberlug-Kirchhain 15:00 28.0 12.4 38.0 27.5 19.0 50.0 230 1004 00.0 00.0 38.9
Dörnick 15:00 14.6 08.5 67.0 14.1 29.0 51.0 250 1003 00.0 00.0 37.5
Dresden-Klotzsche 15:00 28.2 11.3 35.0 28.0 25.0 47.0 220 1005 10.0 00.0 45.0
Düsseldorf 15:00 16.8 05.7 48.0 17.0 40.0 63.0 250 1011 41.0 00.0 60.0
Eisenach 15:00 12.5 10.5 88.0 11.9 18.0 50.0 260 1011 00.0 01.9 02.9
Elpersbüttel 15:00 14.6 08.1 65.0 14.4 57.0 89.0 250 1003 47.0 00.1 05.9
Emden 15:00 15.7 05.5 51.0 16.5 34.0 63.0 250 1005 25.0 00.0 53.4
Erfurt-Weimar 15:00 13.1 12.2 94.0 13.0 28.0 69.0 300 1009 00.0 00.6 06.0
Essen-Bredeney 15:00 14.8 06.3 57.0 13.2 22.0 45.0 250 1011 27.0 00.0 24.6
Faßberg 15:00 14.0 10.1 77.0 22.0 280 1006 30.0
Fehmarn 15:00 15.7 09.9 68.0 15.2 55.0 76.0 260 1002 00.0 00.0 39.3
Feldberg/Mecklenburg 15:00 14.4 12.6 89.0 14.0 41.0 91.0 280 1005 00.0 01.6 07.0
Feldberg/Schwarzwald 15:00 12.6 08.4 76.0 12.9 51.0 93.0 230 00.0 00.0 43.5 00
Feuchtwangen-Heilbronn 15:00 24.0 12.0 47.0 23.9 21.0 41.0 260 1008 00.0 00.0 35.7
Fichtelberg 15:00 18.1 11.0 63.0 18.0 35.0 51.0 210 00.0 50.0
Frankfurt/Main 15:00 14.3 11.9 85.0 13.8 22.0 31.0 230 1012 00.0 00.8 35.0
Freiburg 15:00 24.1 08.7 38.0 23.6 29.0 56.0 230 1013 00.0 00.0 63.6
Freudenstadt 15:00 19.6 08.5 49.0 19.6 24.0 56.0 250 00.0 00.0 69.5
Friesoythe-Altenoythe 15:00 16.4 06.1 51.0 17.5 30.0 54.0 270 1006 29.0 00.0 75.0
Fritzlar (Flugplatz) 15:00 13.3 11.4 88.0 14.0 200 1010 12.0
Fürstenzell 15:00 26.4 15.2 50.0 27.0 09.0 18.0 200 1009 60.0 00.0 12.4
Gardelegen 15:00 13.6 12.1 91.0 13.4 10.0 30.0 210 1007 00.0 00.9 67.1
Garmisch-Partenkirchen 15:00 24.5 12.4 47.0 24.2 04.0 18.0 120 1009 00.0 00.0 75.0
Geilenkirchen (Flugplatz) 15:00 16.1 05.3 49.0 29.0 260 1012 45.0
Geisenheim 15:00 16.1 10.7 70.0 15.9 13.0 30.0 260 1012 00.0 70.0
Gelbelsee 15:00 25.3 12.0 44.0 24.7 15.0 31.0 230 1008 09.0 00.0 48.1
Genthin 15:00 13.9 11.7 87.0 13.3 18.0 47.0 280 1007 00.0 01.1 13.8
Gera-Leumnitz 15:00 25.9 08.4 33.0 25.8 38.0 67.0 240 1006 00.0 00.0 27.0
Gießen/Wettenberg 15:00 13.0 11.5 91.0 13.0 21.0 31.0 240 1011 00.0 00.1 43.3
Glücksburg-Meierwik 15:00 14.6 08.0 65.0 54.0 280 1001 15.0
Goldberg 15:00 13.6 11.9 89.0 13.2 20.0 35.0 240 1005 00.0 00.9 40.2
Görlitz 15:00 28.5 09.7 31.0 29.1 30.0 45.0 220 1005 49.0 00.0 55.0
Gottfrieding 15:00 28.6 10.3 32.0 29.3 27.0 46.0 240 1009 60.0 00.0 14.9
Göttingen 15:00 13.3 11.4 88.0 13.2 09.0 16.0 210 1009 00.0 01.3 18.2
Greifswald 15:00 13.5 12.4 93.0 13.1 20.0 91.0 270 1003 00.0 05.9 06.0
Greifswalder Oie 15:00 14.8 12.9 88.0 14.1 69.0 105.0 290 1002 00.0 00.6 03.5
Großer Arber 15:00 16.2 10.4 69.0 18.0 36.0 190 44.0 00.0 53.0
Grünow 15:00 22.4 12.5 54.0 23.7 50.0 63.0 280 1003 00.0 00.0 01.3
Hahn 15:00 12.5 10.5 88.0 14.0 23.0 45.0 280 1013 13.0 00.0
Hamburg-Fuhlsbüttel 15:00 14.8 08.6 66.0 13.4 15.0 33.0 250 1004 00.0 00.0 45.0
Hannover 15:00 15.4 10.7 74.0 15.3 19.0 46.0 260 1007 01.0 00.0 45.0
Harburg 15:00 17.4 15.3 87.0 16.8 22.0 73.0 290 1011 00.0 01.1 26.1
Harzgerode 15:00 11.5 09.7 89.0 11.1 21.0 55.0 270 1009 00.0 01.4 07.2
Helgoland 15:00 13.7 08.3 70.0 12.8 54.0 90.0 280 1003 15.0 00.3 10.1
Hersfeld, Bad 15:00 12.3 10.4 88.0 12.3 14.0 38.0 200 1010 00.0 00.5 13.9
Hof 15:00 23.2 09.4 42.0 23.5 26.0 54.0 260 1007 00.0 00.0 34.3
Hohenpeißenberg 15:00 21.0 10.4 51.0 21.0 18.0 38.0 230 05.0 00.0 60.0
Hoherodskopf/Vogelsberg 15:00 08.4 08.4 100.0 09.0 20.0 51.0 270 1012 03.4 00.1
Hohn 15:00 12.9 08.9 77.0 25.0 260 1003 30.0
Holzdorf (Flugplatz) 15:00 27.6 12.2 38.0 22.0 230 1004 15.0
Hoyerswerda 15:00 29.4 11.1 32.0 29.2 17.0 37.0 250 1004 27.0 00.0 38.1
Idar-Oberstein 15:00 13.8 09.8 77.0 29.0 250 1013 30.0
Ingolstadt (Flugplatz) 15:00 27.3 10.7 35.0 22.0 240 1008 60.0
Itzehoe 15:00 13.3 09.6 78.0 12.6 13.0 49.0 260 1004 09.0 00.5 42.7
Kahler Asten 15:00 08.5 07.5 93.0 08.6 33.0 63.0 280 00.0 00.0 12.6
Kaisersbach-Cronhütte 15:00 23.3 10.9 46.0 23.1 17.0 41.0 230 1009 00.0 00.0 49.5
Kempten 15:00 23.4 11.8 48.0 22.6 08.0 21.0 260 1010 00.0 00.0 28.9
Kiel-Holtenau 15:00 14.3 08.2 67.0 14.2 26.0 49.0 250 1002 10.0 00.0 32.7
Kissingen, Bad 15:00 14.2 10.2 77.0 12.8 39.0 75.0 310 1010 00.0 00.1 15.2
Kleiner Feldberg/Taunus 15:00 09.0 09.0 100.0 09.5 20.0 40.0 270 00.0 01.0 00.4
Klippeneck 15:00 18.4 11.9 66.0 18.5 26.0 51.0 240 00.0 00.0 46.5
Koblenz (Falckensteinkaserne) 15:00 15.7 08.1 61.0 11.0 290 1012 20.0
Köln-Bonn 15:00 15.9 07.7 58.0 15.7 29.0 49.0 280 1012 00.0 00.0 60.0
Konstanz 15:00 22.5 14.0 59.0 22.8 13.0 48.0 290 1011 00.0 00.0 66.4
Kümmersbruck 15:00 25.4 12.7 45.0 22.0 230 1008 30.0
Kyritz 15:00 13.7 12.4 92.0 13.6 16.0 66.0 280 1006 00.0 02.2 37.2
Laage (Flugplatz) 15:00 13.1 11.6 91.0 18.0 240 1004 06.0
Lahr 15:00 19.0 12.1 64.0 19.5 37.0 47.0 340 1013 00.0 00.0 56.4
Landsberg (Flugplatz) 15:00
Laupheim 15:00 20.9 14.1 65.0 25.0 270 1011 20.0
Lautertal-Oberlauter 15:00 20.9 11.9 56.0 20.1 27.0 56.0 240 1008 00.0 00.0 33.9
Lechfeld 15:00 24.3 11.3 44.0 18.0 230 1009 50.0
Leck 15:00 14.6 06.4 58.0 14.6 37.0 64.0 240 1001 38.0 00.0 23.2
Leinefelde 15:00 11.6 10.7 94.0 12.0 14.0 29.0 270 1009 00.0 03.5 08.0
Leipzig-Holzhausen 15:00 23.4 12.2 49.0 19.4 22.0 45.0 250 1006 00.0 00.0 10.8
Leipzig/Halle 15:00 23.7 08.5 38.0 48.0 69.0 250 1006 00.0 10.0
Leutkirch-Herlazhofen 15:00 21.9 14.0 61.0 21.2 09.0 21.0 240 1011 06.0 00.0 50.0
Lichtenhain-Mittelndorf 15:00 26.9 11.3 38.0 27.1 18.0 38.0 210 1006 24.0 00.0 45.9
Lindenberg 15:00 28.2 11.5 35.0 27.8 32.0 60.0 240 1004 07.0 00.0 15.0
Lingen 15:00 16.6 05.0 46.0 16.6 19.0 49.0 270 1008 27.0 00.0
Lippspringe, Bad 15:00 14.2 11.0 81.0 13.4 21.0 38.0 270 1009 00.0 00.6 32.9
List auf Sylt 15:00 13.0 07.6 70.0 11.1 57.0 95.0 250 0999 25.0 00.1 04.0 00
Lübeck-Blankensee 15:00 14.8 11.3 80.0 14.0 10.0 29.0 230 1004 00.0 00.0 35.1
Lüchow 15:00 14.1 12.6 91.0 13.7 10.0 27.0 240 1006 00.0 00.1 26.9
Lüdenscheid 15:00 12.7 07.8 72.0 12.2 19.0 49.0 270 1011 00.0 00.0 60.2
Lügde-Paenbruch 15:00 13.3 10.4 83.0 12.1 13.0 29.0 260 1009 00.0 00.2 08.1
Magdeburg 15:00 13.7 11.1 84.0 12.5 20.0 46.0 270 1008 00.0 01.2 13.6
Mannheim 15:00 15.1 10.7 75.0 13.7 28.0 51.0 300 1013 00.0 01.8 40.4
Manschnow 15:00 29.7 10.8 31.0 30.0 31.0 51.0 240 1003 37.0 00.0 11.7
Marienberg 15:00
Marienberg, Bad 15:00 10.4 06.9 79.0 10.6 15.0 40.0 270 1012 00.0 00.0 63.5
Marnitz 15:00 13.1 11.6 91.0 12.6 11.0 33.0 290 1006 00.0 00.9 17.8
Meiningen 15:00 12.6 09.9 84.0 11.5 31.0 59.0 290 1011 00.0 00.5 18.4
Meßstetten 15:00 18.8 12.5 67.0 16.8 15.0 33.0 230 00.0 00.0 37.6
Michelstadt-Vielbrunn 15:00 11.9 11.9 100.0 12.1 23.0 49.0 290 1013 00.0 04.7 02.4
Mühlacker 15:00 23.8 10.1 42.0 23.2 23.0 44.0 260 1010 00.0 00.0 54.1
Mühldorf 15:00 26.6 11.3 38.0 26.6 16.0 40.0 260 1009 46.0 00.0 34.9
München-Flughafen 15:00 25.9 11.0 39.0 25.2 25.0 52.0 250 1009 29.0 00.0 50.0 00
München-Stadt 15:00 25.9 10.0 37.0 25.7 23.0 40.0 260 1009 08.0 00.0 55.0
Münster/Osnabrück 15:00 17.5 07.1 50.0 18.4 31.0 50.0 250 1008 43.0 00.0 45.0
Neu-Ulrichstein 15:00 11.7 10.2 91.0 11.4 18.0 32.0 230 1011 00.0 00.5 41.4
Neuburg/Donau (Flugplatz) 15:00 26.7 10.9 37.0 25.0 230 1008 30.0
Neuhaus am Rennweg 15:00 15.5 11.9 79.0 14.0 28.0 62.0 230 00.0 00.3 18.3
Neuhütten/Spessart 15:00 12.0 11.6 97.0 12.4 06.0 38.0 350 1012 00.0 04.9 01.5
Neuruppin 15:00 14.2 11.8 85.0 12.9 19.0 63.0 300 1006 00.0 03.4 10.5
Niederstetten 15:00 22.6 10.9 48.0 22.0 250 1008 30.0
Norderney 15:00 10.9 07.3 78.0 08.4 40.0 81.0 270 1005 37.0 01.9 04.9
Nordholz (Flugplatz) 15:00 14.8 06.7 58.0 40.0 270 1004 25.0
Nörvenich (Flugplatz) 15:00 16.3 03.6 43.0 43.0 270 1012 25.0
Nürburg-Barweiler 15:00 12.8 03.5 53.0 12.8 26.0 48.0 260 1013 02.0 00.0 48.2
Nürnberg 15:00 24.9 13.7 50.0 24.4 16.0 40.0 280 1008 00.0 00.0 35.0
Oberstdorf 15:00 22.5 15.5 65.0 23.0 05.0 14.0 220 04.0 00.0 52.4
Offenbach-Wetterpark 15:00 13.9 12.4 91.0 13.5 13.0 35.0 230 1012 02.5 07.7
Öhringen 15:00 24.0 08.5 37.0 23.8 24.0 48.0 270 1009 00.0 00.0 56.7
Oschatz 15:00 25.7 14.5 50.0 25.0 18.0 37.0 230 1005 00.0 00.1 39.3
Osterfeld 15:00 25.0 09.1 37.0 24.7 21.0 60.0 240 1005 00.0 00.0 11.6
Pelzerhaken 15:00 15.0 09.8 71.0 13.5 25.0 46.0 250 1003 00.0 00.0 44.3 00
Plauen 15:00 25.2 08.3 34.0 24.9 19.0 53.0 230 1006 00.0 00.0 43.6
Potsdam 15:00 17.0 12.5 75.0 17.0 40.0 102.0 300 1006 00.0 00.0 18.0
Putbus 15:00 13.2 12.7 97.0 13.2 30.0 79.0 290 1003 00.0 05.5 03.4
Quickborn 15:00 15.2 07.9 62.0 15.1 26.0 48.0 260 1004 02.0 00.0 39.9
Regensburg 15:00 26.7 13.1 43.0 27.4 15.0 41.0 240 1008 08.0 00.0 46.8
Rheine-Bentlage 15:00
Rheinstetten 15:00 15.6 13.0 85.0 14.9 34.0 51.0 310 1013 00.0 00.1 17.9
Rostock-Warnemünde 15:00 14.3 11.4 83.0 13.3 16.0 47.0 230 1003 00.0 00.1 06.8
Roth 15:00 23.6 13.1 52.0 23.4 22.0 58.0 250 1009 00.1 36.0
Saarbrücken-Ensheim 15:00 12.8 11.6 92.0 13.3 22.0 34.0 270 1015 00.0 00.3 32.0
Salzuflen, Bad 15:00 14.9 06.4 57.0 15.0 15.0 36.0 240 1008 00.0 00.0 70.0
Sankt Peter-Ording 15:00 14.1 09.1 72.0 13.4 57.0 91.0 250 1002 18.0 00.4 15.5
Schauenburg-Elgershausen 15:00 12.7 11.8 94.0 13.0 12.0 1010 00.0 00.8 33.7
Schleiz 15:00 23.3 08.8 40.0 23.4 43.0 72.0 250 1007 00.0 00.0 34.8
Schleswig 15:00 12.7 09.7 82.0 12.7 21.0 51.0 250 1002 28.0 00.5 30.0
Schleswig-Jagel 15:00 12.9 08.4 74.0 36.0 250 1002 11.0
Schmücke 15:00 15.0 09.5 70.0 13.5 45.0 84.0 220 00.0 00.6 59.4
Schönhagen (Ostseebad) 15:00 13.5 09.2 75.0 12.8 33.0 69.0 250 1002 30.0 00.0 35.6
Schwerin 15:00 13.8 12.7 93.0 13.4 20.0 36.0 230 1005 00.0 00.7 20.4
Seehausen 15:00 14.3 13.6 96.0 14.0 13.0 32.0 260 1006 00.0 02.0 09.1
Soltau 15:00 13.7 10.5 81.0 13.4 14.0 28.0 240 1006 00.0 00.0
Stötten 15:00 18.0 14.7 81.0 17.7 21.0 44.0 220 1011 00.0 00.1 39.0
Straubing 15:00 28.2 12.1 37.0 27.5 17.0 27.0 230 1008 26.0 00.0 32.7
Stuttgart (Schnarrenberg) 15:00 25.0 09.9 39.0 24.9 22.0 42.0 260 1009 00.0 00.0 56.5
Stuttgart-Echterdingen 15:00 24.3 10.8 43.0 24.4 20.0 40.0 200 1009 00.0 00.0 55.0
Tholey 15:00 12.3 11.4 94.0 13.1 17.0 31.0 250 1014 00.0 00.0 19.4
Trier-Petrisberg 15:00 16.3 08.9 62.0 16.5 20.0 34.0 260 1013 35.0 00.0 70.0
Trollenhagen 15:00 13.3 11.7 90.0 12.6 31.0 84.0 260 1005 00.0 03.6
Ueckermünde 15:00 14.7 11.9 83.0 14.0 48.0 77.0 290 1004 00.0 00.1 05.4
UFS Deutsche Bucht 15:00 13.8 07.7 67.0 72.0 250 1002 09.0
UFS TW Ems 15:00
Ulm-Mähringen 15:00 18.1 15.3 84.0 16.8 17.0 48.0 250 1011 00.0 01.0 28.7
Ummendorf 15:00 13.2 10.8 85.0 12.5 21.0 39.0 250 1008 00.0 00.8 48.4
Waibstadt 15:00 17.5 14.6 83.0 16.4 34.0 64.0 270 1011 00.0 00.2 06.2
Waldmünchen 15:00 24.4 14.3 53.0 24.6 17.0 35.0 180 1008 07.0 00.0 25.8
Warburg 15:00 15.1 09.3 68.0 14.9 21.0 37.0 250 1009 00.0 00.0 49.5
Waren (Müritz) 15:00 13.3 11.5 89.0 12.8 17.0 55.0 260 1005 00.0 01.4 21.6
Wasserkuppe 15:00 07.8 07.6 99.0 07.8 28.0 56.0 270 00.0 05.3 00.6
Weiden 15:00 25.8 12.2 43.0 25.7 15.0 39.0 210 1007 04.0 00.0 41.8
Weihenstephan-Dürnast 15:00 25.7 11.4 41.0 25.9 22.0 39.0 240 1009 21.0 00.0 24.0
Weinbiet 15:00 10.0 08.9 93.0 10.4 64.0 95.0 270 1013 00.0 00.7 10.2
Weißenburg-Emetzheim 15:00 20.0 15.3 74.0 17.2 40.0 59.0 230 1011 00.0 00.9 06.6
Werl 15:00 16.7 07.1 53.0 18.1 28.0 58.0 270 1009 08.0 00.0 47.5
Wernigerode 15:00 13.4 09.5 77.0 12.4 22.0 41.0 260 1008 00.0 00.7 28.5
Wiesenburg 15:00 14.0 12.2 89.0 13.8 27.0 67.0 290 1007 00.0 00.7 11.0
Wittenberg 15:00 15.2 12.5 84.0 14.7 32.0 65.0 310 1007 00.0 02.6 18.0
Wittmundhafen 15:00 14.9 05.8 54.0 36.0 260 1005 20.0
Wunsiedel-Schönbrunn 15:00 24.0 11.6 46.0 23.9 18.0 41.0 240 1006 00.0 00.0 42.6
Wunstorf 15:00 15.9 10.4 70.0 25.0 260 1007 30.0
Würzburg 15:00 23.9 10.1 42.0 24.1 39.0 58.0 270 1008 00.0 00.0 70.0
Zinnwald-Georgenfeld 15:00 21.3 10.5 50.0 21.0 28.0 40.0 210 02.0 00.0 40.9 00
Zugspitze 15:00 07.0 02.9 75.0 16.0 25.0 220 01.0 61.0